Time;durP1;ratioP1;P1;durP2;ratioP2;P2;SDS_P1;SDS_P2;PMS_P1;PMS_P2;Temp;Humidity;BMP_temperature;BMP_pressure;BME280_temperature;BME280_humidity;BME280_pressure;Samples;Min_cycle;Max_cycle;Signal;HPM_P1;HPM_P2
2024/04/10 00:02:25;;;;;;;;;;;20.00;56.70;;;;;;5437940;26;20031;-47
2024/04/10 00:04:53;;;;;;;;;;;19.90;56.60;;;;;;5440539;26;19924;-47
2024/04/10 00:07:21;;;;;;;;;;;20.00;56.50;;;;;;5447720;26;19924;-46
2024/04/10 00:09:47;;;;;;;;;;;19.90;56.50;;;;;;5456951;26;20357;-44
2024/04/10 00:12:13;;;;;;;;;;;20.00;56.50;;;;;;5440634;26;19924;-50
2024/04/10 00:14:39;;;;;;;;;;;19.90;56.40;;;;;;5428675;26;19933;-46
2024/04/10 00:17:05;;;;;;;;;;;19.90;56.50;;;;;;5440402;26;19924;-45
2024/04/10 00:19:33;;;;;;;;;;;19.90;56.50;;;;;;5444013;26;19924;-44
2024/04/10 00:22:02;;;;;;;;;;;19.90;56.40;;;;;;5450285;26;20425;-45
2024/04/10 00:24:30;;;;;;;;;;;19.90;56.40;;;;;;5459500;26;19931;-48
2024/04/10 00:26:56;;;;;;;;;;;19.90;56.30;;;;;;5444917;26;19937;-44
2024/04/10 00:29:27;;;;;;;;;;;19.90;56.30;;;;;;5457920;26;19924;-44
2024/04/10 00:31:53;;;;;;;;;;;19.90;56.30;;;;;;5458190;26;19924;-43
2024/04/10 00:34:21;;;;;;;;;;;19.90;56.30;;;;;;5459328;26;20660;-46
2024/04/10 00:36:48;;;;;;;;;;;19.90;56.40;;;;;;5443694;26;19932;-46
2024/04/10 00:39:15;;;;;;;;;;;19.90;56.40;;;;;;5458821;26;19932;-45
2024/04/10 00:41:42;;;;;;;;;;;19.90;56.30;;;;;;5503354;25;19971;-44
2024/04/10 00:44:08;;;;;;;;;;;19.90;56.30;;;;;;5444098;26;20246;-47
2024/04/10 00:46:35;;;;;;;;;;;19.90;56.30;;;;;;5458921;26;19932;-47
2024/04/10 00:49:02;;;;;;;;;;;19.90;56.30;;;;;;5453985;26;20005;-44
2024/04/10 00:51:29;;;;;;;;;;;19.90;56.20;;;;;;5437472;26;19932;-46
2024/04/10 00:53:55;;;;;;;;;;;19.90;56.30;;;;;;5440744;26;20364;-45
2024/04/10 00:56:23;;;;;;;;;;;19.80;56.20;;;;;;5443366;26;19932;-47
2024/04/10 00:58:52;;;;;;;;;;;19.80;56.20;;;;;;5457186;26;19924;-45
2024/04/10 01:01:19;;;;;;;;;;;19.80;56.20;;;;;;5458388;26;19986;-46
2024/04/10 01:03:45;;;;;;;;;;;19.80;56.20;;;;;;5457948;26;19932;-45
2024/04/10 01:06:13;;;;;;;;;;;19.80;56.20;;;;;;5444867;26;19961;-46
2024/04/10 01:08:43;;;;;;;;;;;19.80;56.20;;;;;;5442952;26;19956;-44
2024/04/10 01:11:10;;;;;;;;;;;19.80;56.50;;;;;;5444144;26;19924;-43
2024/04/10 01:13:37;;;;;;;;;;;19.90;57.10;;;;;;5458877;26;19924;-44
2024/04/10 01:16:11;;;;;;;;;;;19.90;57.20;;;;;;5453220;26;20045;-44
2024/04/10 01:18:38;;;;;;;;;;;19.90;56.90;;;;;;5451289;26;20257;-45
2024/04/10 01:21:05;;;;;;;;;;;19.90;56.90;;;;;;5481769;26;19993;-49
2024/04/10 01:23:32;;;;;;;;;;;19.90;57.00;;;;;;5447657;26;20883;-45
2024/04/10 01:26:02;;;;;;;;;;;19.90;56.80;;;;;;5442212;26;19970;-46
2024/04/10 01:28:29;;;;;;;;;;;19.90;56.70;;;;;;5450477;26;19925;-43
2024/04/10 01:30:56;;;;;;;;;;;19.90;56.70;;;;;;5431488;26;20442;-44
2024/04/10 01:33:28;;;;;;;;;;;19.90;56.80;;;;;;5451951;26;19924;-44
2024/04/10 01:35:55;;;;;;;;;;;19.90;56.70;;;;;;5446984;26;19924;-46
2024/04/10 01:38:27;;;;;;;;;;;19.90;56.90;;;;;;5442777;26;19925;-44
2024/04/10 01:40:55;;;;;;;;;;;19.90;56.80;;;;;;5449720;26;19925;-45
2024/04/10 01:43:24;;;;;;;;;;;19.90;56.70;;;;;;5442851;26;19924;-45
2024/04/10 01:45:55;;;;;;;;;;;19.90;56.70;;;;;;5444617;26;20277;-45
2024/04/10 01:48:22;;;;;;;;;;;19.80;56.60;;;;;;5440261;26;19932;-43
2024/04/10 01:50:50;;;;;;;;;;;19.80;56.60;;;;;;5451265;26;19932;-49
2024/04/10 01:53:18;;;;;;;;;;;19.80;56.50;;;;;;5449338;26;19931;-43
2024/04/10 01:55:44;;;;;;;;;;;19.80;56.50;;;;;;5446743;26;19940;-43
2024/04/10 01:58:11;;;;;;;;;;;19.80;56.50;;;;;;5456289;26;19961;-42
2024/04/10 02:00:38;;;;;;;;;;;19.80;56.50;;;;;;5454187;26;19924;-47
2024/04/10 02:03:06;;;;;;;;;;;19.80;56.50;;;;;;5459488;26;19979;-47
2024/04/10 02:05:33;;;;;;;;;;;19.80;56.50;;;;;;5462488;26;19970;-45
2024/04/10 02:08:00;;;;;;;;;;;19.80;56.70;;;;;;5457488;26;19932;-47
2024/04/10 02:10:27;;;;;;;;;;;19.80;56.90;;;;;;5453101;26;20253;-45
2024/04/10 02:12:53;;;;;;;;;;;19.90;57.20;;;;;;5456468;26;19944;-46
2024/04/10 02:15:20;;;;;;;;;;;19.90;57.10;;;;;;5449584;26;19993;-46
2024/04/10 02:17:47;;;;;;;;;;;19.90;57.00;;;;;;5459629;26;19924;-46
2024/04/10 02:20:15;;;;;;;;;;;19.90;57.00;;;;;;5448235;26;20478;-43
2024/04/10 02:22:42;;;;;;;;;;;19.80;56.90;;;;;;5448243;26;19924;-46
2024/04/10 02:25:09;;;;;;;;;;;19.80;56.90;;;;;;5448036;26;19925;-46
2024/04/10 02:27:37;;;;;;;;;;;19.90;56.90;;;;;;5459689;26;19940;-46
2024/04/10 02:30:15;;;;;;;;;;;19.80;56.80;;;;;;5462748;26;19931;-44
2024/04/10 02:32:41;;;;;;;;;;;19.80;56.80;;;;;;5459941;26;19925;-43
2024/04/10 02:35:09;;;;;;;;;;;19.80;56.90;;;;;;5447609;26;19929;-47
2024/04/10 02:37:36;;;;;;;;;;;19.80;56.90;;;;;;5460344;26;19924;-43
2024/04/10 02:40:04;;;;;;;;;;;19.80;56.80;;;;;;5459171;26;19932;-44
2024/04/10 02:42:31;;;;;;;;;;;19.80;56.80;;;;;;5460401;26;19931;-43
2024/04/10 02:44:58;;;;;;;;;;;19.80;56.80;;;;;;5484977;26;19925;-49
2024/04/10 02:47:24;;;;;;;;;;;19.80;56.80;;;;;;5436975;26;19928;-42
2024/04/10 02:49:51;;;;;;;;;;;19.80;56.80;;;;;;5452519;26;19924;-47
2024/04/10 02:52:22;;;;;;;;;;;19.80;56.70;;;;;;5458849;26;19925;-46
2024/04/10 02:54:49;;;;;;;;;;;19.80;56.70;;;;;;5459464;26;19924;-43
2024/04/10 02:57:15;;;;;;;;;;;19.80;56.70;;;;;;5460620;26;19924;-47
2024/04/10 02:59:42;;;;;;;;;;;19.80;56.60;;;;;;5461982;26;20272;-44
2024/04/10 03:02:11;;;;;;;;;;;19.80;56.60;;;;;;5444991;26;19924;-44
2024/04/10 03:04:39;;;;;;;;;;;19.70;56.60;;;;;;5447796;26;19929;-44
2024/04/10 03:07:09;;;;;;;;;;;19.70;56.60;;;;;;5446542;26;20075;-44
2024/04/10 03:09:36;;;;;;;;;;;19.80;56.60;;;;;;5444668;26;19931;-45
2024/04/10 03:12:02;;;;;;;;;;;19.70;56.70;;;;;;5459048;26;19924;-45
2024/04/10 03:14:31;;;;;;;;;;;19.80;57.00;;;;;;5450997;26;19932;-45
2024/04/10 03:16:57;;;;;;;;;;;19.80;57.40;;;;;;5441976;26;19924;-45
2024/04/10 03:19:24;;;;;;;;;;;19.80;57.30;;;;;;5448961;26;19925;-44
2024/04/10 03:21:51;;;;;;;;;;;19.80;57.20;;;;;;5456479;26;20289;-44
2024/04/10 03:24:18;;;;;;;;;;;19.80;57.20;;;;;;5460287;26;19955;-45
2024/04/10 03:26:47;;;;;;;;;;;19.80;57.10;;;;;;5445788;26;19925;-46
2024/04/10 03:29:17;;;;;;;;;;;19.80;57.10;;;;;;5439461;26;19925;-47
2024/04/10 03:31:45;;;;;;;;;;;19.80;57.30;;;;;;5454165;26;19936;-43
2024/04/10 03:34:12;;;;;;;;;;;19.80;57.10;;;;;;5453945;26;19925;-48
2024/04/10 03:36:38;;;;;;;;;;;19.70;57.10;;;;;;5453495;26;19944;-47
2024/04/10 03:39:05;;;;;;;;;;;19.80;57.00;;;;;;5443306;26;19925;-44
2024/04/10 03:41:34;;;;;;;;;;;19.70;57.00;;;;;;5438373;26;19925;-47
2024/04/10 03:44:05;;;;;;;;;;;19.80;57.10;;;;;;5445109;26;19955;-47
2024/04/10 03:46:32;;;;;;;;;;;19.80;57.00;;;;;;5458917;26;19962;-43
2024/04/10 03:48:58;;;;;;;;;;;19.70;57.00;;;;;;5457402;26;20673;-43
2024/04/10 03:51:24;;;;;;;;;;;19.70;56.90;;;;;;5448742;26;19925;-46
2024/04/10 03:53:50;;;;;;;;;;;19.70;56.90;;;;;;5445735;26;19925;-47
2024/04/10 03:56:16;;;;;;;;;;;19.70;56.80;;;;;;5459610;26;19933;-43
2024/04/10 03:58:42;;;;;;;;;;;19.70;56.80;;;;;;5445815;26;19932;-45
2024/04/10 04:01:08;;;;;;;;;;;19.70;57.00;;;;;;5441672;26;19925;-43
2024/04/10 04:03:35;;;;;;;;;;;19.80;57.30;;;;;;5451093;26;19986;-45
2024/04/10 04:06:01;;;;;;;;;;;19.80;57.40;;;;;;5445161;26;20137;-45
2024/04/10 04:08:27;;;;;;;;;;;19.80;57.30;;;;;;5446838;26;20048;-45
2024/04/10 04:10:57;;;;;;;;;;;19.80;57.30;;;;;;5512257;26;19924;-48
2024/04/10 04:15:07;;;;;;;;;;;19.80;57.30;;;;;;5478050;25;19928;-46
2024/04/10 04:17:33;;;;;;;;;;;19.70;57.20;;;;;;5453519;26;19936;-49
2024/04/10 04:19:59;;;;;;;;;;;19.80;57.20;;;;;;5458057;26;19940;-49
2024/04/10 04:22:24;;;;;;;;;;;19.80;57.20;;;;;;5462480;26;19932;-45
2024/04/10 04:24:50;;;;;;;;;;;19.80;57.20;;;;;;5461413;26;19939;-47
2024/04/10 04:27:17;;;;;;;;;;;19.80;57.20;;;;;;5463738;26;19928;-46
2024/04/10 04:29:46;;;;;;;;;;;19.80;57.10;;;;;;5462879;26;19932;-44
2024/04/10 04:32:11;;;;;;;;;;;19.70;57.00;;;;;;5469677;26;19929;-44
2024/04/10 04:34:37;;;;;;;;;;;19.70;57.10;;;;;;5468530;26;19935;-47
2024/04/10 04:37:04;;;;;;;;;;;19.70;57.00;;;;;;5473995;26;19929;-45
2024/04/10 04:39:29;;;;;;;;;;;19.70;57.00;;;;;;5480626;26;19978;-46
2024/04/10 04:41:55;;;;;;;;;;;19.70;57.00;;;;;;5447442;26;19940;-49
2024/04/10 04:44:21;;;;;;;;;;;19.70;57.00;;;;;;5455632;26;20821;-44
2024/04/10 04:46:47;;;;;;;;;;;19.70;57.10;;;;;;5456617;26;20431;-43
2024/04/10 04:49:13;;;;;;;;;;;19.70;57.40;;;;;;5459297;26;19940;-45
2024/04/10 04:51:39;;;;;;;;;;;19.70;57.60;;;;;;5453613;26;20054;-45
2024/04/10 04:54:06;;;;;;;;;;;19.80;57.60;;;;;;5457626;26;19937;-42
2024/04/10 04:56:32;;;;;;;;;;;19.80;57.40;;;;;;5444123;26;20272;-44
2024/04/10 04:58:58;;;;;;;;;;;19.80;57.50;;;;;;5460068;26;19940;-48
2024/04/10 05:01:24;;;;;;;;;;;19.80;57.50;;;;;;5461673;26;19951;-43
2024/04/10 05:06:35;;;;;;;;;;;19.80;57.40;;;;;;5455191;26;19935;-44
2024/04/10 05:09:04;;;;;;;;;;;19.70;57.40;;;;;;5445041;26;19936;-43
2024/04/10 05:11:30;;;;;;;;;;;19.80;57.40;;;;;;5456520;26;19929;-44
2024/04/10 05:13:56;;;;;;;;;;;19.70;57.40;;;;;;5476605;26;19935;-50
2024/04/10 05:16:22;;;;;;;;;;;19.70;57.30;;;;;;5487789;26;19939;-45
2024/04/10 05:18:49;;;;;;;;;;;19.70;57.20;;;;;;5488081;26;20253;-44
2024/04/10 05:21:14;;;;;;;;;;;19.70;57.20;;;;;;5489319;26;19996;-45
2024/04/10 05:23:40;;;;;;;;;;;19.70;57.40;;;;;;5493600;26;20277;-44
2024/04/10 05:26:06;;;;;;;;;;;19.70;57.20;;;;;;5478025;26;19928;-47
2024/04/10 05:28:32;;;;;;;;;;;19.70;57.20;;;;;;5464190;26;19936;-45
2024/04/10 05:31:04;;;;;;;;;;;19.70;57.10;;;;;;5463873;26;19936;-46
2024/04/10 05:33:30;;;;;;;;;;;19.70;57.10;;;;;;5486924;26;19928;-46
2024/04/10 05:35:59;;;;;;;;;;;19.70;57.00;;;;;;5493766;26;20370;-46
2024/04/10 05:38:25;;;;;;;;;;;19.70;57.00;;;;;;5474321;26;19928;-44
2024/04/10 05:40:52;;;;;;;;;;;19.70;57.00;;;;;;5464062;26;20671;-44
2024/04/10 05:43:18;;;;;;;;;;;19.70;57.40;;;;;;5464500;26;19928;-44
2024/04/10 05:45:44;;;;;;;;;;;19.70;57.60;;;;;;5478325;26;19956;-45
2024/04/10 05:48:10;;;;;;;;;;;19.70;57.70;;;;;;5482315;26;19982;-43
2024/04/10 05:50:36;;;;;;;;;;;19.80;57.50;;;;;;5475818;26;19935;-44
2024/04/10 05:53:02;;;;;;;;;;;19.80;58.10;;;;;;5467209;26;19937;-44
2024/04/10 05:55:28;;;;;;;;;;;19.80;57.60;;;;;;5481631;26;19935;-44
2024/04/10 05:57:54;;;;;;;;;;;19.80;57.60;;;;;;5480835;26;19940;-42
2024/04/10 06:00:20;;;;;;;;;;;19.70;57.60;;;;;;5485310;26;19977;-47
2024/04/10 06:02:46;;;;;;;;;;;19.70;57.50;;;;;;5493845;26;19935;-44
2024/04/10 06:05:12;;;;;;;;;;;19.70;57.50;;;;;;5481160;26;19934;-42
2024/04/10 06:07:42;;;;;;;;;;;19.70;57.50;;;;;;5495070;26;19927;-43
2024/04/10 06:10:07;;;;;;;;;;;19.70;57.40;;;;;;5468642;26;20345;-43
2024/04/10 06:12:33;;;;;;;;;;;19.70;57.40;;;;;;5495487;26;19928;-43
2024/04/10 06:14:59;;;;;;;;;;;19.70;57.30;;;;;;5466448;26;19936;-44
2024/04/10 06:17:26;;;;;;;;;;;19.70;57.30;;;;;;5463624;26;20019;-45
2024/04/10 06:19:54;;;;;;;;;;;19.70;57.30;;;;;;5480262;26;19935;-47
2024/04/10 06:22:20;;;;;;;;;;;19.70;57.30;;;;;;5479526;26;19974;-44
2024/04/10 06:24:46;;;;;;;;;;;19.70;57.30;;;;;;5477538;26;19928;-44
2024/04/10 06:27:12;;;;;;;;;;;19.70;57.20;;;;;;5483247;26;19928;-43
2024/04/10 06:29:47;;;;;;;;;;;19.60;57.20;;;;;;5471122;26;19975;-44
2024/04/10 06:32:13;;;;;;;;;;;19.60;57.30;;;;;;5476789;26;19928;-44
2024/04/10 06:34:39;;;;;;;;;;;19.70;57.50;;;;;;5463717;26;20440;-46
2024/04/10 06:37:06;;;;;;;;;;;19.70;57.80;;;;;;5476324;26;19931;-44
2024/04/10 06:39:32;;;;;;;;;;;19.70;57.80;;;;;;5487314;26;20586;-43
2024/04/10 06:41:58;;;;;;;;;;;19.70;57.50;;;;;;5480367;26;19928;-44
2024/04/10 06:44:24;;;;;;;;;;;19.70;57.60;;;;;;5477024;26;19928;-43
2024/04/10 06:46:50;;;;;;;;;;;19.80;57.70;;;;;;5499133;26;20427;-44
2024/04/10 06:49:16;;;;;;;;;;;19.70;57.60;;;;;;5481542;26;19973;-43
2024/04/10 06:51:42;;;;;;;;;;;19.70;57.60;;;;;;5488987;26;20380;-46
2024/04/10 06:54:08;;;;;;;;;;;19.70;57.60;;;;;;5480255;26;19997;-43
2024/04/10 06:56:33;;;;;;;;;;;19.70;57.60;;;;;;5494438;26;19948;-46
2024/04/10 06:59:00;;;;;;;;;;;19.70;57.60;;;;;;5492987;26;19935;-47
2024/04/10 07:01:26;;;;;;;;;;;19.70;57.60;;;;;;5494900;26;19936;-44
2024/04/10 07:03:52;;;;;;;;;;;19.70;57.50;;;;;;5481571;26;19929;-43
2024/04/10 07:06:17;;;;;;;;;;;19.70;57.50;;;;;;5481021;26;19936;-43
2024/04/10 07:08:44;;;;;;;;;;;19.70;57.30;;;;;;5480638;26;19996;-43
2024/04/10 07:11:15;;;;;;;;;;;19.70;57.40;;;;;;5485352;26;20364;-45
2024/04/10 07:13:50;;;;;;;;;;;19.70;57.30;;;;;;5486603;26;19928;-45
2024/04/10 07:16:17;;;;;;;;;;;19.70;57.40;;;;;;5469675;26;19935;-46
2024/04/10 07:18:43;;;;;;;;;;;19.70;57.90;;;;;;5482331;26;20749;-44
2024/04/10 07:21:10;;;;;;;;;;;19.70;57.40;;;;;;5481229;26;19928;-44
2024/04/10 07:23:39;;;;;;;;;;;19.60;57.30;;;;;;5471137;26;19952;-44
2024/04/10 07:26:07;;;;;;;;;;;19.70;57.40;;;;;;5457021;26;20272;-46
2024/04/10 07:28:34;;;;;;;;;;;19.70;57.60;;;;;;5445264;26;20648;-47
2024/04/10 07:30:59;;;;;;;;;;;19.70;57.70;;;;;;5476090;26;19928;-44
2024/04/10 07:33:26;;;;;;;;;;;19.70;57.90;;;;;;5463211;26;19937;-43
2024/04/10 07:35:52;;;;;;;;;;;19.70;57.70;;;;;;5463012;26;19928;-45
2024/04/10 07:38:18;;;;;;;;;;;19.80;57.70;;;;;;5430360;26;19936;-43
2024/04/10 07:40:53;;;;;;;;;;;19.70;57.80;;;;;;5475303;26;19939;-44
2024/04/10 07:43:19;;;;;;;;;;;19.70;57.90;;;;;;5483543;26;19928;-43
2024/04/10 07:45:45;;;;;;;;;;;19.70;57.80;;;;;;5492604;26;19935;-42
2024/04/10 07:48:11;;;;;;;;;;;19.70;57.80;;;;;;5473983;26;19940;-42
2024/04/10 07:50:37;;;;;;;;;;;19.70;57.80;;;;;;5481776;26;20578;-45
2024/04/10 07:53:03;;;;;;;;;;;19.70;57.80;;;;;;5476818;26;19928;-45
2024/04/10 07:55:29;;;;;;;;;;;19.70;57.70;;;;;;5471485;26;19943;-45
2024/04/10 07:57:55;;;;;;;;;;;19.70;57.70;;;;;;5489764;26;19928;-47
2024/04/10 08:00:21;;;;;;;;;;;19.70;57.70;;;;;;5461624;26;19940;-46
2024/04/10 08:02:47;;;;;;;;;;;19.70;57.60;;;;;;5424188;26;19929;-43
2024/04/10 08:05:13;;;;;;;;;;;19.70;57.60;;;;;;5480628;26;20021;-44
2024/04/10 08:07:39;;;;;;;;;;;19.70;57.70;;;;;;5480801;26;19932;-44
2024/04/10 08:10:06;;;;;;;;;;;19.70;57.60;;;;;;5476765;26;19936;-46
2024/04/10 08:12:31;;;;;;;;;;;19.70;57.50;;;;;;5443597;26;20272;-45
2024/04/10 08:14:57;;;;;;;;;;;19.70;57.50;;;;;;5464096;26;19937;-44
2024/04/10 08:17:25;;;;;;;;;;;19.70;57.50;;;;;;5472137;26;20440;-45
2024/04/10 08:19:53;;;;;;;;;;;19.70;57.50;;;;;;5464678;26;20013;-46
2024/04/10 08:22:19;;;;;;;;;;;19.70;57.50;;;;;;5477090;26;19951;-45
2024/04/10 08:24:45;;;;;;;;;;;19.60;57.40;;;;;;5486658;26;19928;-46
2024/04/10 08:27:12;;;;;;;;;;;19.70;57.70;;;;;;5473404;26;19928;-46
2024/04/10 08:29:37;;;;;;;;;;;19.70;58.00;;;;;;5460561;26;19936;-49
2024/04/10 08:32:03;;;;;;;;;;;19.70;58.00;;;;;;5465630;26;19928;-46
2024/04/10 08:34:29;;;;;;;;;;;19.70;57.70;;;;;;5480146;26;19936;-43
2024/04/10 08:36:56;;;;;;;;;;;19.70;57.90;;;;;;5476939;26;19934;-48
2024/04/10 08:39:21;;;;;;;;;;;19.70;57.90;;;;;;5481774;26;19934;-43
2024/04/10 08:41:47;;;;;;;;;;;19.80;57.90;;;;;;5478614;26;19928;-42
2024/04/10 08:44:14;;;;;;;;;;;19.70;57.90;;;;;;5480852;26;19935;-46
2024/04/10 08:46:41;;;;;;;;;;;19.70;57.90;;;;;;5452029;26;19935;-45
2024/04/10 08:49:09;;;;;;;;;;;19.70;57.90;;;;;;5466289;26;19940;-46
2024/04/10 08:51:34;;;;;;;;;;;19.70;57.90;;;;;;5490087;26;19980;-44
2024/04/10 08:54:00;;;;;;;;;;;19.70;57.80;;;;;;5462856;26;20437;-44
2024/04/10 08:56:26;;;;;;;;;;;19.70;57.80;;;;;;5461284;26;19928;-44
2024/04/10 08:58:55;;;;;;;;;;;19.70;57.70;;;;;;5461795;26;19928;-42
2024/04/10 09:01:25;;;;;;;;;;;19.70;57.70;;;;;;5464703;26;19964;-44
2024/04/10 09:03:51;;;;;;;;;;;19.70;57.70;;;;;;5435042;26;19928;-45
2024/04/10 09:06:18;;;;;;;;;;;19.70;57.80;;;;;;5465676;26;19997;-44
2024/04/10 09:08:44;;;;;;;;;;;19.70;57.70;;;;;;5490384;26;19928;-43
2024/04/10 09:11:10;;;;;;;;;;;19.70;57.70;;;;;;5465634;26;19928;-44
2024/04/10 09:13:36;;;;;;;;;;;19.70;57.80;;;;;;5495501;26;19974;-44
2024/04/10 09:16:03;;;;;;;;;;;19.60;57.90;;;;;;5488141;26;19943;-44
2024/04/10 09:18:29;;;;;;;;;;;19.70;58.00;;;;;;5473224;26;19928;-43
2024/04/10 09:21:07;;;;;;;;;;;19.70;58.30;;;;;;5489261;26;19972;-43
2024/04/10 09:23:34;;;;;;;;;;;19.70;58.10;;;;;;5428205;26;19975;-45
2024/04/10 09:26:00;;;;;;;;;;;19.70;58.10;;;;;;5479218;26;19940;-47
2024/04/10 09:28:26;;;;;;;;;;;19.70;58.20;;;;;;5476407;26;19974;-45
2024/04/10 09:30:56;;;;;;;;;;;19.70;58.10;;;;;;5463608;26;19936;-42
2024/04/10 09:33:22;;;;;;;;;;;19.80;58.30;;;;;;5431857;26;19998;-44
2024/04/10 09:35:47;;;;;;;;;;;19.80;58.20;;;;;;5476446;26;20349;-44
2024/04/10 09:38:13;;;;;;;;;;;19.70;58.10;;;;;;5476099;26;19939;-43
2024/04/10 09:40:39;;;;;;;;;;;19.70;58.10;;;;;;5463566;26;20022;-45
2024/04/10 09:43:06;;;;;;;;;;;19.70;58.10;;;;;;5480318;26;19929;-42
2024/04/10 09:45:33;;;;;;;;;;;19.70;58.00;;;;;;5482463;26;19940;-44
2024/04/10 09:48:00;;;;;;;;;;;19.70;58.00;;;;;;5477859;26;19927;-42
2024/04/10 09:50:27;;;;;;;;;;;19.70;58.00;;;;;;5454977;26;19935;-44
2024/04/10 09:52:53;;;;;;;;;;;19.70;57.90;;;;;;5479495;26;19934;-43
2024/04/10 09:55:19;;;;;;;;;;;19.70;57.90;;;;;;5470849;26;20015;-43
2024/04/10 09:57:45;;;;;;;;;;;19.70;57.90;;;;;;5481631;26;20704;-43
2024/04/10 10:00:11;;;;;;;;;;;19.70;57.80;;;;;;5476101;26;19940;-42
2024/04/10 10:02:38;;;;;;;;;;;19.70;57.90;;;;;;5476715;26;19936;-44
2024/04/10 10:05:04;;;;;;;;;;;19.60;57.80;;;;;;5493832;26;19936;-44
2024/04/10 10:07:32;;;;;;;;;;;19.60;57.80;;;;;;5482885;26;19936;-44
2024/04/10 10:10:07;;;;;;;;;;;19.70;57.80;;;;;;5465010;26;19952;-42
2024/04/10 10:12:33;;;;;;;;;;;19.60;57.80;;;;;;5476170;26;19933;-43
2024/04/10 10:15:05;;;;;;;;;;;19.60;57.90;;;;;;5471673;26;19928;-44
2024/04/10 10:17:31;;;;;;;;;;;19.60;58.00;;;;;;5486634;26;19932;-43
2024/04/10 10:19:58;;;;;;;;;;;19.70;58.20;;;;;;5476774;26;19934;-42
2024/04/10 10:22:24;;;;;;;;;;;19.70;58.40;;;;;;5471860;26;19953;-45
2024/04/10 10:25:00;;;;;;;;;;;19.70;58.20;;;;;;5462550;26;19944;-44
2024/04/10 10:27:26;;;;;;;;;;;19.80;58.30;;;;;;5476062;26;20254;-46
2024/04/10 10:30:06;;;;;;;;;;;19.70;58.30;;;;;;5475316;26;19935;-44
2024/04/10 10:32:32;;;;;;;;;;;19.70;58.20;;;;;;5483348;26;19934;-47
2024/04/10 10:35:07;;;;;;;;;;;19.70;58.20;;;;;;5477657;26;19939;-48
2024/04/10 10:37:33;;;;;;;;;;;19.70;58.20;;;;;;5475664;26;20385;-47
2024/04/10 10:40:00;;;;;;;;;;;19.70;58.30;;;;;;5477979;26;19940;-45
2024/04/10 10:42:26;;;;;;;;;;;19.70;58.20;;;;;;5473362;26;19933;-46
2024/04/10 10:45:02;;;;;;;;;;;19.70;58.20;;;;;;5495373;26;19936;-46
2024/04/10 10:47:28;;;;;;;;;;;19.70;58.20;;;;;;5485094;26;19928;-49
2024/04/10 10:50:01;;;;;;;;;;;19.70;58.10;;;;;;5486360;26;19973;-43
2024/04/10 10:52:26;;;;;;;;;;;19.70;58.10;;;;;;5482438;26;19973;-47
2024/04/10 10:54:52;;;;;;;;;;;19.70;58.10;;;;;;5479900;26;19935;-48
2024/04/10 10:57:18;;;;;;;;;;;19.70;58.20;;;;;;5477807;26;20278;-47
2024/04/10 10:59:44;;;;;;;;;;;19.60;58.10;;;;;;5475324;26;19932;-42
2024/04/10 11:02:13;;;;;;;;;;;19.60;58.10;;;;;;5480892;26;19931;-47
2024/04/10 11:04:39;;;;;;;;;;;19.70;58.10;;;;;;5436904;26;19937;-43
2024/04/10 11:07:08;;;;;;;;;;;19.60;58.10;;;;;;5474933;26;19933;-44
2024/04/10 11:09:33;;;;;;;;;;;19.70;58.30;;;;;;5472475;26;19927;-44
2024/04/10 11:12:01;;;;;;;;;;;19.70;58.40;;;;;;5479825;26;19935;-48
2024/04/10 11:14:27;;;;;;;;;;;19.80;58.70;;;;;;5483165;26;19939;-43
2024/04/10 11:16:59;;;;;;;;;;;19.70;58.40;;;;;;5476218;26;20373;-47
2024/04/10 11:19:25;;;;;;;;;;;19.70;58.40;;;;;;5487837;26;19928;-44
2024/04/10 11:21:51;;;;;;;;;;;19.70;58.40;;;;;;5485533;26;19928;-45
2024/04/10 11:24:17;;;;;;;;;;;19.70;58.40;;;;;;5468550;26;19928;-43
2024/04/10 11:26:43;;;;;;;;;;;19.70;58.40;;;;;;5480930;26;19945;-44
2024/04/10 11:29:09;;;;;;;;;;;19.70;58.40;;;;;;5467925;26;19948;-46
2024/04/10 11:31:35;;;;;;;;;;;19.70;58.40;;;;;;5482768;26;19940;-46
2024/04/10 11:34:00;;;;;;;;;;;19.70;58.40;;;;;;5476806;26;19932;-43
2024/04/10 11:36:26;;;;;;;;;;;19.70;58.30;;;;;;5484353;26;19928;-45
2024/04/10 11:38:52;;;;;;;;;;;19.70;58.20;;;;;;5479722;26;19940;-44
2024/04/10 11:41:18;;;;;;;;;;;19.70;58.20;;;;;;5462139;26;20393;-46
2024/04/10 11:43:45;;;;;;;;;;;19.70;58.20;;;;;;5463772;26;19940;-45
2024/04/10 11:46:11;;;;;;;;;;;19.70;58.20;;;;;;5474700;26;19937;-42
2024/04/10 11:48:37;;;;;;;;;;;19.70;58.20;;;;;;5486118;26;19928;-44
2024/04/10 11:51:05;;;;;;;;;;;19.70;58.10;;;;;;5481719;26;20015;-42
2024/04/10 11:53:32;;;;;;;;;;;19.70;58.10;;;;;;5483155;26;19968;-42
2024/04/10 11:55:58;;;;;;;;;;;19.70;58.10;;;;;;5489916;26;19940;-46
2024/04/10 11:58:23;;;;;;;;;;;19.60;58.10;;;;;;5480964;26;20352;-44
2024/04/10 12:00:50;;;;;;;;;;;19.70;58.00;;;;;;5465844;26;19940;-43
2024/04/10 12:03:16;;;;;;;;;;;19.70;58.00;;;;;;5442885;26;20033;-43
2024/04/10 12:05:42;;;;;;;;;;;19.60;58.00;;;;;;5474552;26;19928;-44
2024/04/10 12:08:08;;;;;;;;;;;19.70;58.00;;;;;;5479666;26;20274;-43
2024/04/10 12:10:34;;;;;;;;;;;19.60;57.90;;;;;;5480162;26;19928;-43
2024/04/10 12:13:00;;;;;;;;;;;19.60;58.00;;;;;;5479843;26;19928;-42
2024/04/10 12:15:26;;;;;;;;;;;19.60;57.90;;;;;;5471261;26;20018;-46
2024/04/10 12:17:52;;;;;;;;;;;19.60;58.00;;;;;;5474769;26;19977;-46
2024/04/10 12:20:18;;;;;;;;;;;19.60;57.90;;;;;;5483094;26;19928;-45
2024/04/10 12:22:47;;;;;;;;;;;19.60;58.00;;;;;;5462607;26;19956;-44
2024/04/10 12:25:13;;;;;;;;;;;19.60;58.00;;;;;;5474072;26;19929;-45
2024/04/10 12:27:39;;;;;;;;;;;19.60;58.00;;;;;;5474205;26;19939;-46
2024/04/10 12:30:05;;;;;;;;;;;19.60;58.40;;;;;;5476785;26;19940;-44
2024/04/10 12:32:31;;;;;;;;;;;19.70;58.70;;;;;;5472146;26;19935;-47
2024/04/10 12:38:02;;;;;;;;;;;19.70;58.70;;;;;;5479355;26;19928;-46
2024/04/10 12:38:06;;;;;;;;;;;19.70;58.40;;;;;;5478254;26;19964;-46
2024/04/10 12:40:32;;;;;;;;;;;19.80;58.50;;;;;;5465889;26;20250;-44
2024/04/10 12:42:57;;;;;;;;;;;19.70;58.50;;;;;;5480516;26;19974;-45
2024/04/10 12:45:23;;;;;;;;;;;19.70;58.60;;;;;;5482546;26;19928;-44
2024/04/10 12:47:49;;;;;;;;;;;19.70;58.50;;;;;;5501124;26;19927;-44
2024/04/10 12:50:15;;;;;;;;;;;19.70;58.50;;;;;;5493111;26;19992;-44
2024/04/10 12:52:41;;;;;;;;;;;19.70;58.50;;;;;;5496600;26;19928;-44
2024/04/10 12:55:08;;;;;;;;;;;19.70;58.60;;;;;;5464682;26;19932;-44
2024/04/10 12:57:35;;;;;;;;;;;19.70;58.60;;;;;;5476901;26;19934;-45
2024/04/10 13:00:04;;;;;;;;;;;19.70;58.50;;;;;;5478457;26;19974;-47
2024/04/10 13:02:30;;;;;;;;;;;19.70;58.50;;;;;;5476779;26;19932;-46
2024/04/10 13:04:57;;;;;;;;;;;19.70;58.50;;;;;;5465751;26;19929;-44
2024/04/10 13:07:23;;;;;;;;;;;19.70;58.40;;;;;;5473529;26;19936;-44
2024/04/10 13:09:49;;;;;;;;;;;19.70;58.50;;;;;;5482867;26;19935;-45
2024/04/10 13:12:16;;;;;;;;;;;19.70;58.40;;;;;;5484590;26;19940;-43
2024/04/10 13:14:42;;;;;;;;;;;19.70;58.50;;;;;;5450974;26;19936;-42
2024/04/10 13:17:08;;;;;;;;;;;19.70;58.50;;;;;;5496040;26;19929;-42
2024/04/10 13:19:34;;;;;;;;;;;19.70;58.50;;;;;;5481398;26;19928;-45
2024/04/10 13:22:01;;;;;;;;;;;19.70;58.50;;;;;;5477556;26;20628;-43
2024/04/10 13:24:26;;;;;;;;;;;19.70;58.40;;;;;;5487444;26;19953;-44
2024/04/10 13:26:53;;;;;;;;;;;19.70;58.50;;;;;;5443443;26;19937;-44
2024/04/10 13:29:19;;;;;;;;;;;19.70;58.50;;;;;;5458093;26;19929;-46
2024/04/10 13:31:45;;;;;;;;;;;19.70;58.50;;;;;;5464228;26;19928;-43
2024/04/10 13:34:11;;;;;;;;;;;19.70;58.40;;;;;;5477482;26;19932;-43
2024/04/10 13:36:37;;;;;;;;;;;19.70;58.40;;;;;;5476018;26;19987;-47
2024/04/10 13:39:03;;;;;;;;;;;19.70;58.40;;;;;;5465289;26;19932;-43
2024/04/10 13:41:31;;;;;;;;;;;19.70;58.50;;;;;;5454328;26;19938;-41
2024/04/10 13:43:58;;;;;;;;;;;19.70;58.60;;;;;;5481641;26;19947;-42
2024/04/10 13:46:24;;;;;;;;;;;19.70;59.00;;;;;;5464140;26;19932;-42
2024/04/10 13:48:50;;;;;;;;;;;19.70;59.40;;;;;;5468032;26;19928;-42
2024/04/10 13:51:17;;;;;;;;;;;19.80;59.20;;;;;;5485255;26;19932;-42
2024/04/10 13:53:45;;;;;;;;;;;19.80;59.50;;;;;;5495413;26;19987;-41
2024/04/10 13:56:11;;;;;;;;;;;19.80;59.00;;;;;;5482314;26;19932;-41
2024/04/10 13:58:38;;;;;;;;;;;19.80;58.90;;;;;;5483545;26;19928;-41
2024/04/10 14:01:10;;;;;;;;;;;19.80;58.90;;;;;;5481700;26;19928;-42
2024/04/10 14:03:37;;;;;;;;;;;19.80;59.00;;;;;;5495649;26;19935;-41
2024/04/10 14:06:03;;;;;;;;;;;19.80;58.90;;;;;;5480675;26;19935;-41
2024/04/10 14:08:30;;;;;;;;;;;19.80;58.90;;;;;;5495606;26;19934;-40
2024/04/10 14:10:59;;;;;;;;;;;19.80;58.90;;;;;;5459735;26;19934;-43
2024/04/10 14:13:26;;;;;;;;;;;19.80;58.90;;;;;;5482362;26;19928;-43
2024/04/10 14:15:55;;;;;;;;;;;19.80;58.90;;;;;;5437447;26;19932;-42
2024/04/10 14:18:22;;;;;;;;;;;19.80;59.00;;;;;;5433185;26;19929;-40
2024/04/10 14:20:47;;;;;;;;;;;19.80;59.00;;;;;;5468962;26;19929;-42